Los Angeles International Airport
KLAX : now visible

Airfield :











YOU CAN JOIN US ON...

 
LOGIN :

Register | Disclaimer

   EN    FR    IT 

 









Legend :    VFR   Marginal VFR   IFR   Intensive IFR   Very Intensive IFR
Visi :
Ceiling :
>= 8 km
>= 3000ft
5 to 8 km
1000 to 3000 ft
1500m to 5 km
500 to 1000 ft
800 to 1500m
200 to 500 ft
< 800m
< 200 ft
Symbols :   Thunderstorms  Fog  Heavy snow  Heavy precipitations  Wind > 20 kt






- Airport Elevation : 125 ft
- IATA code : LAX


KLAX - Los Angeles International

CURRENT METAR :
  • 072053Z 25004KT 8SM SCT038 BKN060 BKN090 17/11 A3001 RMK AO2 RAB1954E43 SLP162 P0001 60001 T01670111 58015

EXPIRED METARs :
  • 071953Z 24007KT 8SM SCT010 BKN075 OVC090 17/08 A3003 RMK AO2 RAB29E47 SLP170 P0000 T01720083
  • 071853Z 09003KT 10SM FEW010 SCT065 BKN110 19/08 A3004 RMK AO2 SLP172 T01890078

TAF KLAX
Valid from the 07 at 21:00 until the 09 at 00:00 UTC


072036Z 0721/0824 24007KT P6SM -SHRA SCT010 BKN080 OVC090
FM080400 VRB03KT P6SM -SHRA BKN035
FM080700 VRB03KT P6SM -SHRA OVC025
FM081500 06005KT P6SM VCSH BKN020
FM082000 26010KT P6SM SCT040



MET'MAP, your aeronautical weather chart ! - Copyright ORBIFLY December 2007 - Disclaimer

ORBIFLY MET'MAP TEAM :

Programming & Development : Alexandra Zaïnal
Concept & original design : Baudouin d'Aumeries
Assistance for programming : Marc-Olivier Méhu
Technical & hardware support : Manuel Goepfert

Contact : metmap@orbifly.com




SOURCES & CREDITS :

   NOAA       Earth
Advisory